sensor_id;sensor_type;location;lat;lon;timestamp;temperature;humidity
3628;DHT22;1830;49.000;12.074;2024-02-21T00:00:09;5.40;99.90
3628;DHT22;1830;49.000;12.074;2024-02-21T00:02:37;5.60;99.90
3628;DHT22;1830;49.000;12.074;2024-02-21T00:05:05;5.60;99.90
3628;DHT22;1830;49.000;12.074;2024-02-21T00:07:32;5.60;99.90
3628;DHT22;1830;49.000;12.074;2024-02-21T00:09:59;5.50;99.90
3628;DHT22;1830;49.000;12.074;2024-02-21T00:12:26;5.60;99.90
3628;DHT22;1830;49.000;12.074;2024-02-21T00:14:53;5.60;99.90
3628;DHT22;1830;49.000;12.074;2024-02-21T00:17:20;5.60;99.90
3628;DHT22;1830;49.000;12.074;2024-02-21T00:19:47;5.60;99.90
3628;DHT22;1830;49.000;12.074;2024-02-21T00:22:15;5.50;99.90
3628;DHT22;1830;49.000;12.074;2024-02-21T00:24:42;5.70;99.90
3628;DHT22;1830;49.000;12.074;2024-02-21T00:27:09;5.70;99.90
3628;DHT22;1830;49.000;12.074;2024-02-21T00:29:36;5.80;99.90
3628;DHT22;1830;49.000;12.074;2024-02-21T00:32:03;5.80;99.90
3628;DHT22;1830;49.000;12.074;2024-02-21T00:34:30;5.60;99.90
3628;DHT22;1830;49.000;12.074;2024-02-21T00:36:57;5.60;99.90
3628;DHT22;1830;49.000;12.074;2024-02-21T00:39:25;5.60;99.90
3628;DHT22;1830;49.000;12.074;2024-02-21T00:41:52;5.50;99.90
3628;DHT22;1830;49.000;12.074;2024-02-21T00:44:18;5.40;99.90
3628;DHT22;1830;49.000;12.074;2024-02-21T00:46:45;5.40;99.90
3628;DHT22;1830;49.000;12.074;2024-02-21T00:49:12;5.50;99.90
3628;DHT22;1830;49.000;12.074;2024-02-21T00:51:39;5.40;99.90
3628;DHT22;1830;49.000;12.074;2024-02-21T00:54:06;5.50;99.90
3628;DHT22;1830;49.000;12.074;2024-02-21T00:56:34;5.50;99.90
3628;DHT22;1830;49.000;12.074;2024-02-21T00:59:01;5.40;99.90
3628;DHT22;1830;49.000;12.074;2024-02-21T01:01:27;5.30;99.90
3628;DHT22;1830;49.000;12.074;2024-02-21T01:03:54;5.40;99.90
3628;DHT22;1830;49.000;12.074;2024-02-21T01:06:21;5.40;99.90
3628;DHT22;1830;49.000;12.074;2024-02-21T01:08:49;5.40;99.90
3628;DHT22;1830;49.000;12.074;2024-02-21T01:11:16;5.30;99.90
3628;DHT22;1830;49.000;12.074;2024-02-21T01:13:44;5.40;99.90
3628;DHT22;1830;49.000;12.074;2024-02-21T01:16:11;5.40;99.90
3628;DHT22;1830;49.000;12.074;2024-02-21T01:18:37;5.30;99.90
3628;DHT22;1830;49.000;12.074;2024-02-21T01:21:05;5.30;99.90
3628;DHT22;1830;49.000;12.074;2024-02-21T01:23:32;5.20;99.90
3628;DHT22;1830;49.000;12.074;2024-02-21T01:25:59;5.20;99.90
3628;DHT22;1830;49.000;12.074;2024-02-21T01:28:26;5.20;99.90
3628;DHT22;1830;49.000;12.074;2024-02-21T01:30:54;5.10;99.90
3628;DHT22;1830;49.000;12.074;2024-02-21T01:33:21;5.20;99.90
3628;DHT22;1830;49.000;12.074;2024-02-21T01:35:48;5.20;99.90
3628;DHT22;1830;49.000;12.074;2024-02-21T01:38:15;5.30;99.90
3628;DHT22;1830;49.000;12.074;2024-02-21T01:40:41;5.20;99.90
3628;DHT22;1830;49.000;12.074;2024-02-21T01:43:16;5.30;99.90
3628;DHT22;1830;49.000;12.074;2024-02-21T01:45:43;5.40;99.90
3628;DHT22;1830;49.000;12.074;2024-02-21T01:48:12;5.20;99.90
3628;DHT22;1830;49.000;12.074;2024-02-21T01:50:39;5.20;99.90
3628;DHT22;1830;49.000;12.074;2024-02-21T01:53:07;5.20;99.90
3628;DHT22;1830;49.000;12.074;2024-02-21T01:55:34;5.20;99.90
3628;DHT22;1830;49.000;12.074;2024-02-21T01:58:02;5.10;99.90
3628;DHT22;1830;49.000;12.074;2024-02-21T02:00:29;5.20;99.90
3628;DHT22;1830;49.000;12.074;2024-02-21T02:02:56;5.20;99.90
3628;DHT22;1830;49.000;12.074;2024-02-21T02:05:25;5.20;99.90
3628;DHT22;1830;49.000;12.074;2024-02-21T02:07:53;5.00;99.90
3628;DHT22;1830;49.000;12.074;2024-02-21T02:10:19;5.00;99.90
3628;DHT22;1830;49.000;12.074;2024-02-21T02:12:46;5.00;99.90
3628;DHT22;1830;49.000;12.074;2024-02-21T02:15:13;5.10;99.90
3628;DHT22;1830;49.000;12.074;2024-02-21T02:17:40;5.00;99.90
3628;DHT22;1830;49.000;12.074;2024-02-21T02:20:08;5.10;99.90
3628;DHT22;1830;49.000;12.074;2024-02-21T02:22:37;5.00;99.90
3628;DHT22;1830;49.000;12.074;2024-02-21T02:25:07;5.00;99.90
3628;DHT22;1830;49.000;12.074;2024-02-21T02:27:41;5.10;99.90
3628;DHT22;1830;49.000;12.074;2024-02-21T02:30:10;5.00;99.90
3628;DHT22;1830;49.000;12.074;2024-02-21T02:32:37;5.10;99.90
3628;DHT22;1830;49.000;12.074;2024-02-21T02:35:04;5.10;99.90
3628;DHT22;1830;49.000;12.074;2024-02-21T02:37:31;5.10;99.90
3628;DHT22;1830;49.000;12.074;2024-02-21T02:39:58;5.10;99.90
3628;DHT22;1830;49.000;12.074;2024-02-21T02:42:26;5.10;99.90
3628;DHT22;1830;49.000;12.074;2024-02-21T02:44:53;5.10;99.90
3628;DHT22;1830;49.000;12.074;2024-02-21T02:47:20;5.10;99.90
3628;DHT22;1830;49.000;12.074;2024-02-21T02:49:47;5.20;99.90
3628;DHT22;1830;49.000;12.074;2024-02-21T02:52:16;5.20;99.90
3628;DHT22;1830;49.000;12.074;2024-02-21T02:54:43;5.10;99.90
3628;DHT22;1830;49.000;12.074;2024-02-21T02:57:10;5.20;99.90
3628;DHT22;1830;49.000;12.074;2024-02-21T02:59:38;5.10;99.90
3628;DHT22;1830;49.000;12.074;2024-02-21T03:02:04;5.10;99.90
3628;DHT22;1830;49.000;12.074;2024-02-21T03:04:31;5.00;99.90
3628;DHT22;1830;49.000;12.074;2024-02-21T03:06:58;5.00;99.90
3628;DHT22;1830;49.000;12.074;2024-02-21T03:09:25;5.00;99.90
3628;DHT22;1830;49.000;12.074;2024-02-21T03:11:52;5.00;99.90
3628;DHT22;1830;49.000;12.074;2024-02-21T03:14:22;4.90;99.90
3628;DHT22;1830;49.000;12.074;2024-02-21T03:16:52;5.00;99.90
3628;DHT22;1830;49.000;12.074;2024-02-21T03:19:19;4.90;99.90
3628;DHT22;1830;49.000;12.074;2024-02-21T03:21:46;4.90;99.90
3628;DHT22;1830;49.000;12.074;2024-02-21T03:24:12;4.90;99.90
3628;DHT22;1830;49.000;12.074;2024-02-21T03:26:39;4.80;99.90
3628;DHT22;1830;49.000;12.074;2024-02-21T03:29:06;4.90;99.90
3628;DHT22;1830;49.000;12.074;2024-02-21T03:31:34;4.90;99.90
3628;DHT22;1830;49.000;12.074;2024-02-21T03:34:02;4.90;99.90
3628;DHT22;1830;49.000;12.074;2024-02-21T03:36:29;4.90;99.90
3628;DHT22;1830;49.000;12.074;2024-02-21T03:38:55;4.90;99.90
3628;DHT22;1830;49.000;12.074;2024-02-21T03:41:22;4.80;99.90
3628;DHT22;1830;49.000;12.074;2024-02-21T03:43:49;4.80;99.90
3628;DHT22;1830;49.000;12.074;2024-02-21T03:46:16;4.80;99.90
3628;DHT22;1830;49.000;12.074;2024-02-21T03:48:43;4.90;99.90
3628;DHT22;1830;49.000;12.074;2024-02-21T03:51:12;4.90;99.90
3628;DHT22;1830;49.000;12.074;2024-02-21T03:53:39;4.90;99.90
3628;DHT22;1830;49.000;12.074;2024-02-21T03:56:06;4.90;99.90
3628;DHT22;1830;49.000;12.074;2024-02-21T03:58:33;4.90;99.90
3628;DHT22;1830;49.000;12.074;2024-02-21T04:01:00;5.00;99.90
3628;DHT22;1830;49.000;12.074;2024-02-21T04:03:27;4.90;99.90
3628;DHT22;1830;49.000;12.074;2024-02-21T04:05:54;5.00;99.90
3628;DHT22;1830;49.000;12.074;2024-02-21T04:08:22;5.00;99.90
3628;DHT22;1830;49.000;12.074;2024-02-21T04:10:49;5.10;99.90
3628;DHT22;1830;49.000;12.074;2024-02-21T04:13:16;5.10;99.90
3628;DHT22;1830;49.000;12.074;2024-02-21T04:15:43;4.90;99.90
3628;DHT22;1830;49.000;12.074;2024-02-21T04:18:10;5.00;99.90
3628;DHT22;1830;49.000;12.074;2024-02-21T04:20:36;4.90;99.90
3628;DHT22;1830;49.000;12.074;2024-02-21T04:23:03;4.90;99.90
3628;DHT22;1830;49.000;12.074;2024-02-21T04:25:31;5.00;99.90
3628;DHT22;1830;49.000;12.074;2024-02-21T04:27:58;5.00;99.90
3628;DHT22;1830;49.000;12.074;2024-02-21T04:30:25;5.00;99.90
3628;DHT22;1830;49.000;12.074;2024-02-21T04:32:52;4.90;99.90
3628;DHT22;1830;49.000;12.074;2024-02-21T04:35:20;5.00;99.90
3628;DHT22;1830;49.000;12.074;2024-02-21T04:37:46;4.90;99.90
3628;DHT22;1830;49.000;12.074;2024-02-21T04:40:13;5.00;99.90
3628;DHT22;1830;49.000;12.074;2024-02-21T04:42:44;5.10;99.90
3628;DHT22;1830;49.000;12.074;2024-02-21T04:45:11;5.00;99.90
3628;DHT22;1830;49.000;12.074;2024-02-21T04:47:38;5.10;99.90
3628;DHT22;1830;49.000;12.074;2024-02-21T04:50:05;5.10;99.90
3628;DHT22;1830;49.000;12.074;2024-02-21T04:52:32;5.10;99.90
3628;DHT22;1830;49.000;12.074;2024-02-21T04:54:59;5.10;99.90
3628;DHT22;1830;49.000;12.074;2024-02-21T04:57:26;5.10;99.90
3628;DHT22;1830;49.000;12.074;2024-02-21T04:59:54;5.00;99.90
3628;DHT22;1830;49.000;12.074;2024-02-21T05:02:20;5.10;99.90
3628;DHT22;1830;49.000;12.074;2024-02-21T05:04:49;5.20;99.90
3628;DHT22;1830;49.000;12.074;2024-02-21T05:07:16;5.10;99.90
3628;DHT22;1830;49.000;12.074;2024-02-21T05:09:45;5.10;99.90
3628;DHT22;1830;49.000;12.074;2024-02-21T05:12:12;5.20;99.90
3628;DHT22;1830;49.000;12.074;2024-02-21T05:14:38;5.20;99.90
3628;DHT22;1830;49.000;12.074;2024-02-21T05:17:06;5.20;99.90
3628;DHT22;1830;49.000;12.074;2024-02-21T05:19:33;5.10;99.90
3628;DHT22;1830;49.000;12.074;2024-02-21T05:22:01;5.10;99.90
3628;DHT22;1830;49.000;12.074;2024-02-21T05:24:28;5.00;99.90
3628;DHT22;1830;49.000;12.074;2024-02-21T05:26:55;5.00;99.90
3628;DHT22;1830;49.000;12.074;2024-02-21T05:29:22;5.10;99.90
3628;DHT22;1830;49.000;12.074;2024-02-21T05:31:56;5.00;99.90
3628;DHT22;1830;49.000;12.074;2024-02-21T05:34:24;5.00;99.90
3628;DHT22;1830;49.000;12.074;2024-02-21T05:36:52;4.90;99.90
3628;DHT22;1830;49.000;12.074;2024-02-21T05:39:19;4.90;99.90
3628;DHT22;1830;49.000;12.074;2024-02-21T05:41:48;4.90;99.90
3628;DHT22;1830;49.000;12.074;2024-02-21T05:44:15;4.80;99.90
3628;DHT22;1830;49.000;12.074;2024-02-21T05:46:42;4.90;99.90
3628;DHT22;1830;49.000;12.074;2024-02-21T05:49:09;4.90;99.90
3628;DHT22;1830;49.000;12.074;2024-02-21T05:51:37;4.90;99.90
3628;DHT22;1830;49.000;12.074;2024-02-21T05:54:04;4.90;99.90
3628;DHT22;1830;49.000;12.074;2024-02-21T05:56:31;4.90;99.90
3628;DHT22;1830;49.000;12.074;2024-02-21T05:58:57;4.90;99.90
3628;DHT22;1830;49.000;12.074;2024-02-21T06:01:24;5.00;99.90
3628;DHT22;1830;49.000;12.074;2024-02-21T06:03:51;4.90;99.90
3628;DHT22;1830;49.000;12.074;2024-02-21T06:06:18;4.90;99.90
3628;DHT22;1830;49.000;12.074;2024-02-21T06:08:48;5.00;99.90
3628;DHT22;1830;49.000;12.074;2024-02-21T06:11:15;5.00;99.90
3628;DHT22;1830;49.000;12.074;2024-02-21T06:13:42;5.00;99.90
3628;DHT22;1830;49.000;12.074;2024-02-21T06:16:08;5.10;99.90
3628;DHT22;1830;49.000;12.074;2024-02-21T06:18:36;5.10;99.90
3628;DHT22;1830;49.000;12.074;2024-02-21T06:21:03;5.10;99.90
3628;DHT22;1830;49.000;12.074;2024-02-21T06:23:30;5.10;99.90
3628;DHT22;1830;49.000;12.074;2024-02-21T06:25:58;5.10;99.90
3628;DHT22;1830;49.000;12.074;2024-02-21T06:28:25;5.20;99.90
3628;DHT22;1830;49.000;12.074;2024-02-21T06:30:52;5.20;99.90
3628;DHT22;1830;49.000;12.074;2024-02-21T06:33:18;5.20;99.90
3628;DHT22;1830;49.000;12.074;2024-02-21T06:35:48;5.20;99.90
3628;DHT22;1830;49.000;12.074;2024-02-21T06:38:17;5.30;99.90
3628;DHT22;1830;49.000;12.074;2024-02-21T06:40:44;5.40;99.90
3628;DHT22;1830;49.000;12.074;2024-02-21T06:43:17;5.30;99.90
3628;DHT22;1830;49.000;12.074;2024-02-21T06:45:44;5.30;99.90
3628;DHT22;1830;49.000;12.074;2024-02-21T06:48:13;5.20;99.90
3628;DHT22;1830;49.000;12.074;2024-02-21T06:50:39;5.40;99.90
3628;DHT22;1830;49.000;12.074;2024-02-21T06:53:07;5.50;99.90
3628;DHT22;1830;49.000;12.074;2024-02-21T06:55:33;5.60;99.90
3628;DHT22;1830;49.000;12.074;2024-02-21T06:58:00;5.60;99.90
3628;DHT22;1830;49.000;12.074;2024-02-21T07:00:29;5.60;99.90
3628;DHT22;1830;49.000;12.074;2024-02-21T07:02:56;5.60;99.90
3628;DHT22;1830;49.000;12.074;2024-02-21T07:05:23;5.60;99.90
3628;DHT22;1830;49.000;12.074;2024-02-21T07:07:50;5.50;99.90
3628;DHT22;1830;49.000;12.074;2024-02-21T07:10:17;5.60;99.90
3628;DHT22;1830;49.000;12.074;2024-02-21T07:12:44;5.70;99.90
3628;DHT22;1830;49.000;12.074;2024-02-21T07:15:10;5.60;99.90
3628;DHT22;1830;49.000;12.074;2024-02-21T07:17:38;5.80;99.90
3628;DHT22;1830;49.000;12.074;2024-02-21T07:20:06;5.70;99.90
3628;DHT22;1830;49.000;12.074;2024-02-21T07:22:33;5.90;99.90
3628;DHT22;1830;49.000;12.074;2024-02-21T07:25:00;5.90;99.90
3628;DHT22;1830;49.000;12.074;2024-02-21T07:27:27;5.90;99.90
3628;DHT22;1830;49.000;12.074;2024-02-21T07:29:56;5.90;99.90
3628;DHT22;1830;49.000;12.074;2024-02-21T07:32:23;6.00;99.90
3628;DHT22;1830;49.000;12.074;2024-02-21T07:34:51;5.90;99.90
3628;DHT22;1830;49.000;12.074;2024-02-21T07:37:18;5.90;99.90
3628;DHT22;1830;49.000;12.074;2024-02-21T07:39:44;5.80;99.90
3628;DHT22;1830;49.000;12.074;2024-02-21T07:42:11;5.60;99.90
3628;DHT22;1830;49.000;12.074;2024-02-21T07:44:38;5.60;99.90
3628;DHT22;1830;49.000;12.074;2024-02-21T07:47:05;5.60;99.90
3628;DHT22;1830;49.000;12.074;2024-02-21T07:49:32;5.60;99.90
3628;DHT22;1830;49.000;12.074;2024-02-21T07:52:01;5.60;99.90
3628;DHT22;1830;49.000;12.074;2024-02-21T07:54:29;5.60;99.90
3628;DHT22;1830;49.000;12.074;2024-02-21T07:56:55;5.60;99.90
3628;DHT22;1830;49.000;12.074;2024-02-21T07:59:22;5.60;99.90
3628;DHT22;1830;49.000;12.074;2024-02-21T08:01:49;5.70;99.90
3628;DHT22;1830;49.000;12.074;2024-02-21T08:04:15;5.80;99.90
3628;DHT22;1830;49.000;12.074;2024-02-21T08:06:42;5.80;99.90
3628;DHT22;1830;49.000;12.074;2024-02-21T08:09:12;5.90;99.90
3628;DHT22;1830;49.000;12.074;2024-02-21T08:11:38;5.90;99.90
3628;DHT22;1830;49.000;12.074;2024-02-21T08:14:05;6.00;99.90
3628;DHT22;1830;49.000;12.074;2024-02-21T08:16:32;5.90;99.90
3628;DHT22;1830;49.000;12.074;2024-02-21T08:18:59;6.00;99.90
3628;DHT22;1830;49.000;12.074;2024-02-21T08:21:28;6.10;99.90
3628;DHT22;1830;49.000;12.074;2024-02-21T08:23:55;6.20;99.90
3628;DHT22;1830;49.000;12.074;2024-02-21T08:26:23;6.30;99.90
3628;DHT22;1830;49.000;12.074;2024-02-21T08:28:53;6.30;99.90
3628;DHT22;1830;49.000;12.074;2024-02-21T08:31:20;6.40;99.90
3628;DHT22;1830;49.000;12.074;2024-02-21T08:33:48;6.30;99.90
3628;DHT22;1830;49.000;12.074;2024-02-21T08:36:17;6.40;99.90
3628;DHT22;1830;49.000;12.074;2024-02-21T08:38:45;6.40;99.90
3628;DHT22;1830;49.000;12.074;2024-02-21T08:41:11;6.50;99.90
3628;DHT22;1830;49.000;12.074;2024-02-21T08:43:40;6.60;99.90
3628;DHT22;1830;49.000;12.074;2024-02-21T08:46:06;6.60;99.90
3628;DHT22;1830;49.000;12.074;2024-02-21T08:48:33;6.50;99.90
3628;DHT22;1830;49.000;12.074;2024-02-21T08:51:00;6.60;99.90
3628;DHT22;1830;49.000;12.074;2024-02-21T08:53:27;6.70;99.90
3628;DHT22;1830;49.000;12.074;2024-02-21T08:55:54;6.70;99.90
3628;DHT22;1830;49.000;12.074;2024-02-21T08:58:20;6.60;99.90
3628;DHT22;1830;49.000;12.074;2024-02-21T09:00:50;6.70;99.90
3628;DHT22;1830;49.000;12.074;2024-02-21T09:03:17;6.60;99.90
3628;DHT22;1830;49.000;12.074;2024-02-21T09:05:45;6.70;99.90
3628;DHT22;1830;49.000;12.074;2024-02-21T09:08:12;6.70;99.90
3628;DHT22;1830;49.000;12.074;2024-02-21T09:10:39;6.80;99.90
3628;DHT22;1830;49.000;12.074;2024-02-21T09:13:06;7.00;99.90
3628;DHT22;1830;49.000;12.074;2024-02-21T09:15:34;7.10;99.90
3628;DHT22;1830;49.000;12.074;2024-02-21T09:18:02;7.10;99.90
3628;DHT22;1830;49.000;12.074;2024-02-21T09:20:29;7.30;99.90
3628;DHT22;1830;49.000;12.074;2024-02-21T09:22:56;7.30;99.90
3628;DHT22;1830;49.000;12.074;2024-02-21T09:25:23;7.40;99.90
3628;DHT22;1830;49.000;12.074;2024-02-21T09:27:50;7.40;99.90
3628;DHT22;1830;49.000;12.074;2024-02-21T09:30:17;7.50;99.90
3628;DHT22;1830;49.000;12.074;2024-02-21T09:32:44;7.60;99.90
3628;DHT22;1830;49.000;12.074;2024-02-21T09:35:12;7.60;99.90
3628;DHT22;1830;49.000;12.074;2024-02-21T09:37:39;7.70;99.90
3628;DHT22;1830;49.000;12.074;2024-02-21T09:40:08;7.70;99.90
3628;DHT22;1830;49.000;12.074;2024-02-21T09:42:38;7.80;99.90
3628;DHT22;1830;49.000;12.074;2024-02-21T09:45:08;7.90;99.90
3628;DHT22;1830;49.000;12.074;2024-02-21T09:47:44;7.90;99.90
3628;DHT22;1830;49.000;12.074;2024-02-21T09:50:17;8.00;99.90
3628;DHT22;1830;49.000;12.074;2024-02-21T09:52:44;8.00;99.90
3628;DHT22;1830;49.000;12.074;2024-02-21T09:55:12;8.20;99.90
3628;DHT22;1830;49.000;12.074;2024-02-21T09:57:40;8.20;99.90
3628;DHT22;1830;49.000;12.074;2024-02-21T10:00:07;8.30;99.90
3628;DHT22;1830;49.000;12.074;2024-02-21T10:02:34;8.20;99.90
3628;DHT22;1830;49.000;12.074;2024-02-21T10:05:02;8.30;99.90
3628;DHT22;1830;49.000;12.074;2024-02-21T10:07:31;8.20;99.90
3628;DHT22;1830;49.000;12.074;2024-02-21T10:10:02;8.30;99.90
3628;DHT22;1830;49.000;12.074;2024-02-21T10:12:29;8.30;99.90
3628;DHT22;1830;49.000;12.074;2024-02-21T10:15:02;8.30;99.90
3628;DHT22;1830;49.000;12.074;2024-02-21T10:17:30;8.40;99.90
3628;DHT22;1830;49.000;12.074;2024-02-21T10:20:07;8.50;99.90
3628;DHT22;1830;49.000;12.074;2024-02-21T10:22:37;8.60;99.90
3628;DHT22;1830;49.000;12.074;2024-02-21T10:25:08;8.70;99.90
3628;DHT22;1830;49.000;12.074;2024-02-21T10:27:35;8.70;99.90
3628;DHT22;1830;49.000;12.074;2024-02-21T10:30:03;8.70;99.90
3628;DHT22;1830;49.000;12.074;2024-02-21T10:32:30;8.60;99.90
3628;DHT22;1830;49.000;12.074;2024-02-21T10:35:01;8.60;99.90
3628;DHT22;1830;49.000;12.074;2024-02-21T10:37:29;8.60;99.90
3628;DHT22;1830;49.000;12.074;2024-02-21T10:39:57;8.80;99.90
3628;DHT22;1830;49.000;12.074;2024-02-21T10:42:29;8.70;99.90
3628;DHT22;1830;49.000;12.074;2024-02-21T10:45:00;8.70;99.90
3628;DHT22;1830;49.000;12.074;2024-02-21T10:47:28;8.80;99.90
3628;DHT22;1830;49.000;12.074;2024-02-21T10:50:02;8.80;99.90
3628;DHT22;1830;49.000;12.074;2024-02-21T10:52:42;8.90;99.90
3628;DHT22;1830;49.000;12.074;2024-02-21T10:55:20;9.10;99.90
3628;DHT22;1830;49.000;12.074;2024-02-21T10:57:49;9.10;99.90
3628;DHT22;1830;49.000;12.074;2024-02-21T11:00:18;9.10;99.90
3628;DHT22;1830;49.000;12.074;2024-02-21T11:02:45;9.20;99.90
3628;DHT22;1830;49.000;12.074;2024-02-21T11:05:14;9.30;99.90
3628;DHT22;1830;49.000;12.074;2024-02-21T11:07:41;9.30;99.90
3628;DHT22;1830;49.000;12.074;2024-02-21T11:10:23;9.40;99.90
3628;DHT22;1830;49.000;12.074;2024-02-21T11:12:52;9.40;99.90
3628;DHT22;1830;49.000;12.074;2024-02-21T11:15:25;9.50;99.90
3628;DHT22;1830;49.000;12.074;2024-02-21T11:17:56;9.40;99.90
3628;DHT22;1830;49.000;12.074;2024-02-21T11:20:32;9.40;99.90
3628;DHT22;1830;49.000;12.074;2024-02-21T11:22:59;9.50;99.90
3628;DHT22;1830;49.000;12.074;2024-02-21T11:25:28;9.60;99.90
3628;DHT22;1830;49.000;12.074;2024-02-21T11:28:00;9.70;99.90
3628;DHT22;1830;49.000;12.074;2024-02-21T11:30:30;9.50;99.90
3628;DHT22;1830;49.000;12.074;2024-02-21T11:33:01;9.60;99.90
3628;DHT22;1830;49.000;12.074;2024-02-21T11:35:32;9.60;99.90
3628;DHT22;1830;49.000;12.074;2024-02-21T11:38:10;9.70;99.90
3628;DHT22;1830;49.000;12.074;2024-02-21T11:40:43;9.70;99.90
3628;DHT22;1830;49.000;12.074;2024-02-21T11:43:10;9.70;99.90
3628;DHT22;1830;49.000;12.074;2024-02-21T11:45:37;9.70;99.90
3628;DHT22;1830;49.000;12.074;2024-02-21T11:48:06;9.80;99.90
3628;DHT22;1830;49.000;12.074;2024-02-21T11:50:34;9.90;99.90
3628;DHT22;1830;49.000;12.074;2024-02-21T11:53:01;9.80;99.90
3628;DHT22;1830;49.000;12.074;2024-02-21T11:55:28;9.80;99.90
3628;DHT22;1830;49.000;12.074;2024-02-21T11:57:56;10.00;99.90
3628;DHT22;1830;49.000;12.074;2024-02-21T12:00:25;10.20;99.90
3628;DHT22;1830;49.000;12.074;2024-02-21T12:02:52;10.10;99.90
3628;DHT22;1830;49.000;12.074;2024-02-21T12:05:21;10.10;99.90
3628;DHT22;1830;49.000;12.074;2024-02-21T12:07:48;10.10;99.90
3628;DHT22;1830;49.000;12.074;2024-02-21T12:10:14;10.30;99.90
3628;DHT22;1830;49.000;12.074;2024-02-21T12:12:41;10.40;99.90
3628;DHT22;1830;49.000;12.074;2024-02-21T12:15:10;10.30;99.90
3628;DHT22;1830;49.000;12.074;2024-02-21T12:17:39;10.30;99.90
3628;DHT22;1830;49.000;12.074;2024-02-21T12:20:06;10.40;99.90
3628;DHT22;1830;49.000;12.074;2024-02-21T12:22:35;10.40;99.90
3628;DHT22;1830;49.000;12.074;2024-02-21T12:25:03;10.40;99.90
3628;DHT22;1830;49.000;12.074;2024-02-21T12:27:33;10.50;99.90
3628;DHT22;1830;49.000;12.074;2024-02-21T12:30:00;10.50;99.90
3628;DHT22;1830;49.000;12.074;2024-02-21T12:32:28;10.50;99.90
3628;DHT22;1830;49.000;12.074;2024-02-21T12:34:55;10.60;99.90
3628;DHT22;1830;49.000;12.074;2024-02-21T12:37:22;10.70;99.90
3628;DHT22;1830;49.000;12.074;2024-02-21T12:39:50;10.80;99.90
3628;DHT22;1830;49.000;12.074;2024-02-21T12:42:17;10.80;99.90
3628;DHT22;1830;49.000;12.074;2024-02-21T12:44:44;10.90;99.90
3628;DHT22;1830;49.000;12.074;2024-02-21T12:47:11;10.90;99.90
3628;DHT22;1830;49.000;12.074;2024-02-21T12:49:39;10.90;99.90
3628;DHT22;1830;49.000;12.074;2024-02-21T12:52:06;11.00;99.90
3628;DHT22;1830;49.000;12.074;2024-02-21T12:54:33;11.10;99.90
3628;DHT22;1830;49.000;12.074;2024-02-21T12:57:00;11.20;99.90
3628;DHT22;1830;49.000;12.074;2024-02-21T12:59:28;11.30;99.90
3628;DHT22;1830;49.000;12.074;2024-02-21T13:01:55;11.40;99.90
3628;DHT22;1830;49.000;12.074;2024-02-21T13:04:22;11.20;99.90
3628;DHT22;1830;49.000;12.074;2024-02-21T13:06:50;11.20;99.90
3628;DHT22;1830;49.000;12.074;2024-02-21T13:09:17;11.30;99.90
3628;DHT22;1830;49.000;12.074;2024-02-21T13:11:45;11.30;99.90
3628;DHT22;1830;49.000;12.074;2024-02-21T13:14:12;11.20;99.90
3628;DHT22;1830;49.000;12.074;2024-02-21T13:16:39;11.20;99.90
3628;DHT22;1830;49.000;12.074;2024-02-21T13:19:06;11.30;99.90
3628;DHT22;1830;49.000;12.074;2024-02-21T13:21:33;11.30;99.90
3628;DHT22;1830;49.000;12.074;2024-02-21T13:24:01;11.30;99.90
3628;DHT22;1830;49.000;12.074;2024-02-21T13:26:28;11.30;99.90
3628;DHT22;1830;49.000;12.074;2024-02-21T13:28:55;11.30;99.90
3628;DHT22;1830;49.000;12.074;2024-02-21T13:31:22;11.30;99.90
3628;DHT22;1830;49.000;12.074;2024-02-21T13:33:50;11.30;99.90
3628;DHT22;1830;49.000;12.074;2024-02-21T13:36:17;11.40;99.90
3628;DHT22;1830;49.000;12.074;2024-02-21T13:38:44;11.40;99.90
3628;DHT22;1830;49.000;12.074;2024-02-21T13:41:13;11.60;99.40
3628;DHT22;1830;49.000;12.074;2024-02-21T13:43:40;11.70;99.50
3628;DHT22;1830;49.000;12.074;2024-02-21T13:46:07;11.70;98.70
3628;DHT22;1830;49.000;12.074;2024-02-21T13:48:35;11.60;98.60
3628;DHT22;1830;49.000;12.074;2024-02-21T13:51:02;11.50;97.80
3628;DHT22;1830;49.000;12.074;2024-02-21T13:53:29;11.50;98.70
3628;DHT22;1830;49.000;12.074;2024-02-21T13:55:56;11.40;98.00
3628;DHT22;1830;49.000;12.074;2024-02-21T13:58:24;11.40;98.30
3628;DHT22;1830;49.000;12.074;2024-02-21T14:00:51;11.50;98.60
3628;DHT22;1830;49.000;12.074;2024-02-21T14:03:19;11.60;98.90
3628;DHT22;1830;49.000;12.074;2024-02-21T14:05:46;11.60;99.10
3628;DHT22;1830;49.000;12.074;2024-02-21T14:08:13;11.60;98.20
3628;DHT22;1830;49.000;12.074;2024-02-21T14:10:41;11.60;97.90
3628;DHT22;1830;49.000;12.074;2024-02-21T14:13:07;11.60;98.20
3628;DHT22;1830;49.000;12.074;2024-02-21T14:15:36;11.60;98.30
3628;DHT22;1830;49.000;12.074;2024-02-21T14:18:06;11.50;98.00
3628;DHT22;1830;49.000;12.074;2024-02-21T14:20:35;11.50;98.00
3628;DHT22;1830;49.000;12.074;2024-02-21T14:23:01;11.40;98.10
3628;DHT22;1830;49.000;12.074;2024-02-21T14:25:30;11.50;98.10
3628;DHT22;1830;49.000;12.074;2024-02-21T14:27:56;11.50;98.00
3628;DHT22;1830;49.000;12.074;2024-02-21T14:30:23;11.60;98.20
3628;DHT22;1830;49.000;12.074;2024-02-21T14:32:52;11.60;97.90
3628;DHT22;1830;49.000;12.074;2024-02-21T14:35:19;11.70;98.00
3628;DHT22;1830;49.000;12.074;2024-02-21T14:37:46;11.60;97.40
3628;DHT22;1830;49.000;12.074;2024-02-21T14:40:14;11.60;97.70
3628;DHT22;1830;49.000;12.074;2024-02-21T14:42:41;11.60;98.20
3628;DHT22;1830;49.000;12.074;2024-02-21T14:45:09;11.60;98.00
3628;DHT22;1830;49.000;12.074;2024-02-21T14:47:35;11.60;97.70
3628;DHT22;1830;49.000;12.074;2024-02-21T14:50:04;11.70;97.90
3628;DHT22;1830;49.000;12.074;2024-02-21T14:52:32;11.70;98.00
3628;DHT22;1830;49.000;12.074;2024-02-21T14:55:01;11.60;98.00
3628;DHT22;1830;49.000;12.074;2024-02-21T14:57:28;11.60;97.90
3628;DHT22;1830;49.000;12.074;2024-02-21T14:59:55;11.50;97.40
3628;DHT22;1830;49.000;12.074;2024-02-21T15:02:24;11.40;97.50
3628;DHT22;1830;49.000;12.074;2024-02-21T15:04:52;11.40;97.40
3628;DHT22;1830;49.000;12.074;2024-02-21T15:07:20;11.30;97.60
3628;DHT22;1830;49.000;12.074;2024-02-21T15:09:49;11.40;97.60
3628;DHT22;1830;49.000;12.074;2024-02-21T15:12:16;11.30;97.90
3628;DHT22;1830;49.000;12.074;2024-02-21T15:14:43;11.30;97.90
3628;DHT22;1830;49.000;12.074;2024-02-21T15:17:11;11.30;98.20
3628;DHT22;1830;49.000;12.074;2024-02-21T15:19:37;11.30;98.50
3628;DHT22;1830;49.000;12.074;2024-02-21T15:22:09;11.30;98.80
3628;DHT22;1830;49.000;12.074;2024-02-21T15:24:38;11.30;98.60
3628;DHT22;1830;49.000;12.074;2024-02-21T15:27:05;11.20;98.70
3628;DHT22;1830;49.000;12.074;2024-02-21T15:29:32;11.20;98.80
3628;DHT22;1830;49.000;12.074;2024-02-21T15:31:59;11.20;99.20
3628;DHT22;1830;49.000;12.074;2024-02-21T15:34:26;11.20;99.50
3628;DHT22;1830;49.000;12.074;2024-02-21T15:36:52;11.20;99.40
3628;DHT22;1830;49.000;12.074;2024-02-21T15:39:19;11.20;99.40
3628;DHT22;1830;49.000;12.074;2024-02-21T15:41:47;11.20;99.50
3628;DHT22;1830;49.000;12.074;2024-02-21T15:44:14;11.10;99.20
3628;DHT22;1830;49.000;12.074;2024-02-21T15:46:41;11.00;99.30
3628;DHT22;1830;49.000;12.074;2024-02-21T15:49:08;11.00;99.50
3628;DHT22;1830;49.000;12.074;2024-02-21T15:51:37;11.00;99.50
3628;DHT22;1830;49.000;12.074;2024-02-21T15:54:06;11.00;99.80
3628;DHT22;1830;49.000;12.074;2024-02-21T15:56:34;11.00;99.90
3628;DHT22;1830;49.000;12.074;2024-02-21T15:59:02;10.90;99.90